Time;durP1;ratioP1;P1;durP2;ratioP2;P2;SDS_P1;SDS_P2;PMS_P1;PMS_P2;Temp;Humidity;BMP_temperature;BMP_pressure;BME280_temperature;BME280_humidity;BME280_pressure;Samples;Min_cycle;Max_cycle;Signal;HPM_P1;HPM_P2
2022/07/02 00:01:06;;;;;;;4.15;0.93;;;;;;;22.38;40.32;101939.28;4955273;29;20110;-67
2022/07/02 00:03:33;;;;;;;2.42;1.27;;;;;;;22.36;39.94;101947.63;4955220;29;20397;-66
2022/07/02 00:06:01;;;;;;;2.83;1.40;;;;;;;22.34;40.98;101949.72;4955296;29;20039;-66
2022/07/02 00:08:27;;;;;;;5.32;1.60;;;;;;;22.28;40.69;101944.94;4939153;29;20030;-67
2022/07/02 00:10:54;;;;;;;2.47;1.20;;;;;;;22.25;40.46;101950.75;4971787;28;20118;-67
2022/07/02 00:13:22;;;;;;;2.47;1.10;;;;;;;22.20;39.92;101953.19;4968644;28;20133;-66
2022/07/02 00:15:48;;;;;;;3.25;1.13;;;;;;;22.17;40.30;101952.69;4977522;28;20034;-66
2022/07/02 00:18:14;;;;;;;2.75;0.82;;;;;;;22.12;41.07;101950.50;4994836;28;20040;-67
2022/07/02 00:20:42;;;;;;;4.45;1.55;;;;;;;22.05;40.67;101941.31;4993646;28;20026;-66
2022/07/02 00:23:07;;;;;;;5.10;1.20;;;;;;;22.04;40.82;101953.25;4994774;28;20029;-67
2022/07/02 00:25:38;;;;;;;1.83;0.93;;;;;;;22.00;41.11;101940.97;4993543;28;20030;-66
2022/07/02 00:28:05;;;;;;;4.75;1.40;;;;;;;21.96;41.05;101940.50;4977213;28;20026;-66
2022/07/02 00:30:32;;;;;;;3.10;1.08;;;;;;;21.99;40.93;101939.28;4993381;28;20026;-66
2022/07/02 00:32:58;;;;;;;3.38;1.70;;;;;;;22.00;40.86;101941.84;4994555;28;20547;-67
2022/07/02 00:35:24;;;;;;;2.53;1.15;;;;;;;22.03;40.80;101937.91;4977079;28;20026;-67
2022/07/02 00:37:49;;;;;;;3.47;1.10;;;;;;;22.03;41.26;101940.63;4993335;28;20033;-67
2022/07/02 00:40:15;;;;;;;2.25;1.05;;;;;;;22.05;40.77;101939.41;4993270;28;20023;-67
2022/07/02 00:42:41;;;;;;;2.97;0.98;;;;;;;22.05;41.09;101938.59;4993191;28;20022;-67
2022/07/02 00:45:07;;;;;;;2.95;1.50;;;;;;;22.02;41.08;101937.06;4976973;28;20089;-67
2022/07/02 00:47:33;;;;;;;4.57;1.08;;;;;;;22.00;41.39;101935.53;4994246;28;20023;-67
2022/07/02 00:50:03;;;;;;;2.63;1.33;;;;;;;21.93;41.34;101934.53;4994224;28;20101;-66
2022/07/02 00:52:28;;;;;;;2.80;1.30;;;;;;;21.95;41.11;101935.22;4994239;28;20022;-67
2022/07/02 00:54:53;;;;;;;1.80;1.13;;;;;;;21.95;41.67;101932.47;4992945;28;20503;-66
2022/07/02 00:57:20;;;;;;;4.45;1.10;;;;;;;21.93;41.27;101937.28;4992918;28;20476;-66
2022/07/02 00:59:45;;;;;;;9.30;1.20;;;;;;;21.91;41.43;101925.69;4992891;28;20085;-66
2022/07/02 01:02:10;;;;;;;2.53;1.25;;;;;;;21.92;41.39;101928.22;4976646;28;20030;-67
2022/07/02 01:04:36;;;;;;;7.32;1.33;;;;;;;21.90;41.13;101926.69;4992823;28;20030;-67
2022/07/02 01:07:06;;;;;;;5.13;1.23;;;;;;;21.89;41.72;101934.03;4992849;28;20034;-67
2022/07/02 01:12:41;;;;;;;5.07;1.13;;;;;;;21.82;41.41;101934.88;4992653;28;20073;-66
2022/07/02 01:15:07;;;;;;;1.10;1.00;;;;;;;21.75;41.13;101929.28;4992603;28;20030;-67
2022/07/02 01:17:32;;;;;;;3.25;1.08;;;;;;;21.72;41.55;101931.53;4992516;28;20089;-67
2022/07/02 01:19:57;;;;;;;3.53;1.05;;;;;;;21.68;41.38;101924.69;4992436;28;20030;-67
2022/07/02 01:22:44;;;;;;;2.55;1.13;;;;;;;21.66;41.32;101933.06;4976328;28;20184;-67
2022/07/02 01:25:10;;;;;;;8.00;1.30;;;;;;;21.62;41.20;101926.25;4993686;28;20030;-66
2022/07/02 01:27:35;;;;;;;3.50;1.08;;;;;;;21.60;41.38;101922.00;4992398;28;20531;-66
2022/07/02 01:30:01;;;;;;;3.83;1.50;;;;;;;21.55;41.50;101929.84;4976215;28;20400;-66
2022/07/02 01:32:26;;;;;;;1.50;0.90;;;;;;;21.53;41.19;101926.44;4992220;28;20018;-66
2022/07/02 01:34:54;;;;;;;2.38;1.27;;;;;;;21.46;42.02;101913.50;4992278;28;20041;-66
2022/07/02 01:37:22;;;;;;;2.13;1.17;;;;;;;21.43;41.40;101919.31;4975906;28;20026;-67
2022/07/02 01:39:48;;;;;;;3.90;1.13;;;;;;;21.37;41.75;101924.59;4992230;28;20031;-67
2022/07/02 01:42:14;;;;;;;2.60;1.48;;;;;;;21.30;42.01;101927.16;4992210;28;20022;-67
2022/07/02 01:44:41;;;;;;;2.97;1.20;;;;;;;21.28;41.54;101940.09;4992113;28;20033;-66
2022/07/02 01:47:08;;;;;;;2.25;1.40;;;;;;;21.22;41.63;101935.34;4992037;28;20026;-66
2022/07/02 01:49:34;;;;;;;1.67;1.13;;;;;;;21.22;42.00;101943.50;4975771;28;20126;-67
2022/07/02 01:52:00;;;;;;;1.13;0.85;;;;;;;21.21;41.74;101944.56;4993058;28;20555;-66
2022/07/02 01:54:25;;;;;;;2.53;1.35;;;;;;;21.18;42.25;101935.84;4992068;28;20121;-66
2022/07/02 01:56:50;;;;;;;8.60;1.05;;;;;;;21.20;42.35;101931.94;4991865;28;20080;-66
2022/07/02 01:59:16;;;;;;;1.10;1.00;;;;;;;21.19;41.75;101930.22;4991890;28;20025;-66
2022/07/02 02:01:42;;;;;;;2.38;1.20;;;;;;;21.14;42.26;101924.44;4992459;28;20028;-67
2022/07/02 02:04:08;;;;;;;5.43;1.70;;;;;;;21.16;41.83;101932.47;4992850;28;20022;-66
2022/07/02 02:06:33;;;;;;;5.72;0.77;;;;;;;21.14;42.46;101929.03;4992890;28;20034;-66
2022/07/02 02:08:58;;;;;;;4.25;1.23;;;;;;;21.10;42.02;101925.81;4976472;28;20033;-66
2022/07/02 02:11:24;;;;;;;4.20;1.17;;;;;;;21.10;42.36;101927.69;4992719;28;20108;-66
2022/07/02 02:13:49;;;;;;;1.08;0.68;;;;;;;21.07;42.05;101925.28;4992371;28;20117;-66
2022/07/02 02:16:15;;;;;;;1.73;1.30;;;;;;;21.04;42.29;101931.91;4992681;28;20500;-66
2022/07/02 02:18:40;;;;;;;4.63;1.10;;;;;;;21.02;42.45;101931.22;4996772;28;20037;-67
2022/07/02 02:21:07;;;;;;;3.17;0.82;;;;;;;20.97;42.09;101925.44;4999386;28;20057;-66
2022/07/02 02:23:32;;;;;;;3.78;0.90;;;;;;;20.94;41.95;101931.22;4999128;28;20439;-66
2022/07/02 02:25:57;;;;;;;1.75;1.25;;;;;;;20.90;42.09;101935.31;4999061;28;20084;-66
2022/07/02 02:28:23;;;;;;;4.00;1.67;;;;;;;20.84;42.11;101919.63;5000215;28;20102;-66
2022/07/02 02:30:48;;;;;;;2.33;1.10;;;;;;;20.81;42.63;101919.97;4998980;28;20077;-67
2022/07/02 02:33:13;;;;;;;1.67;0.90;;;;;;;20.80;42.83;101934.59;4998890;28;20049;-66
2022/07/02 02:35:39;;;;;;;2.28;1.00;;;;;;;20.72;42.66;101920.97;5000201;28;20395;-66
2022/07/02 02:38:04;;;;;;;2.17;0.50;;;;;;;20.73;42.26;101925.41;4982810;28;20026;-66
2022/07/02 02:40:30;;;;;;;5.38;1.00;;;;;;;20.69;42.37;101927.63;4982687;28;20053;-66
2022/07/02 02:42:55;;;;;;;4.50;1.02;;;;;;;20.67;42.70;101926.94;5000142;28;20534;-67
2022/07/02 02:45:20;;;;;;;2.38;1.08;;;;;;;20.64;42.27;101930.00;5000169;28;20480;-66
2022/07/02 02:47:45;;;;;;;2.13;1.52;;;;;;;20.62;42.30;101926.59;5000036;28;20076;-66
2022/07/02 02:50:11;;;;;;;3.70;0.80;;;;;;;20.59;42.97;101943.28;4998706;28;20118;-66
2022/07/02 02:52:36;;;;;;;6.45;1.27;;;;;;;20.58;42.46;101935.25;4998793;28;20076;-66
2022/07/02 02:55:02;;;;;;;1.33;0.95;;;;;;;20.55;43.34;101938.31;4998773;28;20033;-66
2022/07/02 02:57:27;;;;;;;2.70;1.00;;;;;;;20.51;43.13;101940.53;4998692;28;20042;-67
2022/07/02 02:59:53;;;;;;;1.63;0.88;;;;;;;20.53;42.67;101943.06;5000049;28;20117;-66
2022/07/02 03:02:18;;;;;;;2.25;1.25;;;;;;;20.54;43.17;101950.22;4998968;28;20019;-67
2022/07/02 03:04:43;;;;;;;6.47;1.15;;;;;;;20.50;42.58;101955.16;4998619;28;20030;-66
2022/07/02 03:07:09;;;;;;;4.40;1.55;;;;;;;20.49;43.24;101952.59;4982339;28;20088;-66
2022/07/02 03:09:34;;;;;;;2.08;1.33;;;;;;;20.49;42.96;101953.44;4999925;28;20035;-66
2022/07/02 03:11:59;;;;;;;2.40;1.65;;;;;;;20.47;42.93;101943.72;4999792;28;20380;-66
2022/07/02 03:14:25;;;;;;;1.65;1.17;;;;;;;20.43;42.90;101943.25;4998546;28;20099;-66
2022/07/02 03:16:50;;;;;;;2.60;1.13;;;;;;;20.44;42.80;101949.50;4999915;28;20070;-66
2022/07/02 03:19:15;;;;;;;2.28;1.15;;;;;;;20.42;42.93;101946.97;4999865;28;20038;-66
2022/07/02 03:21:41;;;;;;;2.00;0.88;;;;;;;20.37;42.97;101943.91;4999703;28;20424;-66
2022/07/02 03:24:06;;;;;;;2.58;1.10;;;;;;;20.40;43.35;101953.59;4998620;28;20074;-66
2022/07/02 03:26:32;;;;;;;2.78;0.93;;;;;;;20.36;42.83;101946.75;4982328;28;20022;-66
2022/07/02 03:28:57;;;;;;;1.08;0.98;;;;;;;20.32;43.01;101940.81;4998606;28;20487;-66
2022/07/02 03:31:22;;;;;;;1.13;1.08;;;;;;;20.33;43.55;101954.25;4995547;28;20022;-66
2022/07/02 03:33:48;;;;;;;3.90;1.27;;;;;;;20.29;44.03;101952.91;4995274;28;20460;-66
2022/07/02 03:36:13;;;;;;;1.92;0.90;;;;;;;20.25;43.19;101951.50;4996521;28;20532;-66
2022/07/02 03:38:39;;;;;;;2.42;0.90;;;;;;;20.26;43.33;101953.22;4996544;28;20019;-66
2022/07/02 03:41:06;;;;;;;7.22;1.13;;;;;;;20.21;43.69;101955.53;4996522;28;20022;-66
2022/07/02 03:43:32;;;;;;;4.18;1.60;;;;;;;20.21;43.61;101958.25;4979129;28;20029;-66
2022/07/02 03:45:57;;;;;;;4.88;1.25;;;;;;;20.23;43.60;101960.81;4995260;28;20034;-66
2022/07/02 03:48:22;;;;;;;1.58;1.00;;;;;;;20.18;43.60;101961.28;4995164;28;20028;-66
2022/07/02 03:50:48;;;;;;;1.10;0.90;;;;;;;20.21;43.86;101962.88;4995006;28;20064;-66
2022/07/02 03:53:13;;;;;;;2.72;1.20;;;;;;;20.23;43.56;101968.97;4994933;28;20062;-66
2022/07/02 03:55:38;;;;;;;2.90;0.93;;;;;;;20.22;43.64;101962.69;4978784;28;20034;-66
2022/07/02 03:58:04;;;;;;;4.65;1.52;;;;;;;20.21;43.79;101958.25;4996173;28;20030;-66
2022/07/02 04:00:29;;;;;;;0.80;0.80;;;;;;;20.20;43.64;101959.28;4994940;28;20102;-66
2022/07/02 04:02:54;;;;;;;2.78;0.85;;;;;;;20.22;43.44;101961.81;4994788;28;20019;-67
2022/07/02 04:05:20;;;;;;;3.05;1.20;;;;;;;20.22;43.54;101961.81;4994839;28;20050;-67
2022/07/02 04:07:46;;;;;;;1.95;1.02;;;;;;;20.20;44.03;101959.28;4994878;28;20038;-66
2022/07/02 04:10:11;;;;;;;1.45;1.35;;;;;;;20.23;43.72;101956.22;4994751;28;20030;-66
2022/07/02 04:12:37;;;;;;;2.83;1.20;;;;;;;20.26;43.99;101961.38;4994501;28;20053;-66
2022/07/02 04:15:03;;;;;;;1.85;1.15;;;;;;;20.30;43.87;101964.59;4994735;28;20030;-66
2022/07/02 04:17:28;;;;;;;4.95;1.15;;;;;;;20.32;44.10;101959.88;4994696;28;20427;-66
2022/07/02 04:19:55;;;;;;;0.60;0.60;;;;;;;20.38;43.71;101969.25;4994693;28;20019;-66
2022/07/02 04:22:20;;;;;;;2.60;1.27;;;;;;;20.41;43.75;101961.59;4994615;28;20026;-66
2022/07/02 04:24:46;;;;;;;3.28;1.15;;;;;;;20.48;43.94;101967.22;4994564;28;20032;-66
2022/07/02 04:27:11;;;;;;;5.53;1.13;;;;;;;20.57;43.72;101966.25;4978150;28;20031;-66
2022/07/02 04:29:36;;;;;;;2.10;1.23;;;;;;;20.63;44.04;101960.97;4978215;28;20038;-66
2022/07/02 04:32:02;;;;;;;2.60;1.20;;;;;;;20.74;43.91;101959.81;4995500;28;20476;-66
2022/07/02 04:34:27;;;;;;;2.28;0.93;;;;;;;20.82;43.44;101957.09;4994330;28;20407;-66
2022/07/02 04:36:52;;;;;;;1.63;0.85;;;;;;;20.93;43.49;101962.22;4995453;28;20023;-66
2022/07/02 04:39:18;;;;;;;4.38;1.00;;;;;;;21.01;43.61;101948.59;4995489;28;20036;-66
2022/07/02 04:41:43;;;;;;;5.00;1.20;;;;;;;21.13;43.78;101958.19;4993969;28;20475;-66
2022/07/02 04:44:09;;;;;;;4.88;1.40;;;;;;;21.23;43.93;101953.41;4995346;28;20018;-66
2022/07/02 04:46:34;;;;;;;6.72;1.48;;;;;;;21.39;43.33;101956.09;4994081;28;20105;-66
2022/07/02 04:48:59;;;;;;;8.60;1.35;;;;;;;21.53;43.16;101956.41;4995119;28;20030;-66
2022/07/02 04:51:25;;;;;;;1.17;0.82;;;;;;;21.63;43.61;101948.91;4984239;28;20377;-67
2022/07/02 04:53:50;;;;;;;2.38;0.82;;;;;;;21.76;43.40;101950.06;4950874;28;20016;-66
2022/07/02 04:56:15;;;;;;;1.52;0.95;;;;;;;21.92;43.44;101960.13;4964035;28;20445;-66
2022/07/02 04:58:41;;;;;;;1.67;1.10;;;;;;;22.05;43.56;101961.25;4948359;28;20089;-66
2022/07/02 05:01:06;;;;;;;1.98;1.05;;;;;;;22.21;42.81;101954.91;4963077;28;20027;-66
2022/07/02 05:03:32;;;;;;;1.73;1.13;;;;;;;22.36;42.78;101958.56;4947097;28;20050;-66
2022/07/02 05:05:57;;;;;;;2.42;0.88;;;;;;;22.50;42.71;101949.59;4964287;28;20030;-66
2022/07/02 05:08:26;;;;;;;8.40;1.10;;;;;;;22.68;42.75;101953.97;4962539;28;20447;-66
2022/07/02 05:10:54;;;;;;;2.15;1.15;;;;;;;22.81;42.47;101955.09;4964293;28;20027;-66
2022/07/02 05:13:21;;;;;;;2.20;1.48;;;;;;;22.98;42.06;101958.53;4963943;28;20112;-66
2022/07/02 05:15:47;;;;;;;2.50;0.70;;;;;;;23.12;42.01;101955.88;4946765;28;20851;-66
2022/07/02 05:18:12;;;;;;;8.82;1.73;;;;;;;23.29;41.94;101958.47;4962954;28;20053;-66
2022/07/02 05:20:38;;;;;;;4.93;1.05;;;;;;;23.43;42.13;101958.53;4963930;28;20507;-66
2022/07/02 05:23:03;;;;;;;1.10;1.00;;;;;;;23.60;41.53;101962.81;4965281;28;20103;-66
2022/07/02 05:25:28;;;;;;;4.90;0.75;;;;;;;23.77;41.99;101961.59;4962647;28;20019;-66
2022/07/02 05:27:54;;;;;;;2.22;0.65;;;;;;;23.94;41.05;101964.16;4962741;28;20027;-67
2022/07/02 05:30:19;;;;;;;1.90;0.95;;;;;;;24.10;41.26;101967.59;4938493;29;20128;-67
2022/07/02 05:32:44;;;;;;;2.28;0.63;;;;;;;24.27;41.24;101968.22;4954462;29;20078;-67
2022/07/02 05:35:10;;;;;;;2.38;0.77;;;;;;;24.40;41.19;101962.91;4954513;29;20023;-66
2022/07/02 05:37:35;;;;;;;1.65;0.63;;;;;;;24.58;40.81;101966.09;4938393;29;20059;-66
2022/07/02 05:40:00;;;;;;;1.00;0.90;;;;;;;24.74;40.90;101971.34;4954404;28;20393;-66
2022/07/02 05:42:26;;;;;;;2.10;0.90;;;;;;;24.87;40.48;101963.28;4955493;28;20034;-66
2022/07/02 05:44:51;;;;;;;3.38;0.90;;;;;;;25.05;40.56;101968.31;4938316;29;20120;-67
2022/07/02 05:47:17;;;;;;;0.98;0.60;;;;;;;25.24;39.93;101962.16;4955484;28;20504;-67
2022/07/02 05:49:42;;;;;;;6.15;1.35;;;;;;;25.43;40.41;101960.66;4954173;29;20031;-66
2022/07/02 05:52:07;;;;;;;0.80;0.80;;;;;;;25.59;39.56;101968.63;4954270;29;20069;-66
2022/07/02 05:54:33;;;;;;;0.80;0.55;;;;;;;25.75;39.86;101965.56;4953621;28;20393;-67
2022/07/02 05:56:58;;;;;;;1.13;0.70;;;;;;;25.90;39.32;101955.31;4955332;28;20441;-67
2022/07/02 05:59:24;;;;;;;1.80;0.68;;;;;;;26.07;39.37;101957.72;4955340;28;20027;-67
2022/07/02 06:01:49;;;;;;;0.50;0.50;;;;;;;26.23;39.41;101960.16;4955173;28;20045;-67
2022/07/02 06:04:15;;;;;;;2.67;0.70;;;;;;;26.36;38.75;101949.22;4954174;29;20046;-67
2022/07/02 06:09:24;;;;;;;4.03;0.88;;;;;;;26.76;38.50;101953.81;4954263;29;20090;-67
2022/07/02 06:11:49;;;;;;;1.52;0.40;;;;;;;26.97;38.71;101953.66;4953988;28;20026;-67
2022/07/02 06:14:15;;;;;;;0.35;0.30;;;;;;;27.16;38.21;101954.75;4953763;29;20086;-67
2022/07/02 06:16:40;;;;;;;1.13;0.57;;;;;;;27.34;38.09;101945.84;4937876;29;20042;-67
2022/07/02 06:19:06;;;;;;;0.90;0.55;;;;;;;27.50;37.35;101939.97;4953956;29;20055;-67
2022/07/02 06:21:32;;;;;;;3.80;0.52;;;;;;;27.74;37.58;101953.06;4955076;28;20477;-67
2022/07/02 06:23:58;;;;;;;11.02;1.05;;;;;;;27.91;36.43;101953.44;4937881;29;20592;-67
2022/07/02 06:26:23;;;;;;;2.05;0.40;;;;;;;28.10;36.73;101950.66;4937937;29;20118;-67
2022/07/02 06:28:48;;;;;;;4.20;0.80;;;;;;;28.30;36.56;101954.19;4953744;28;20058;-67
2022/07/02 06:31:14;;;;;;;2.35;0.68;;;;;;;28.47;36.62;101953.69;4937894;29;20078;-67
2022/07/02 06:33:41;;;;;;;1.27;0.50;;;;;;;28.62;36.06;101940.44;4953700;29;20027;-67
2022/07/02 06:36:07;;;;;;;4.45;0.50;;;;;;;28.81;36.09;101951.41;4954975;28;20023;-67
2022/07/02 06:38:33;;;;;;;1.00;0.43;;;;;;;29.00;35.79;101954.25;4937796;29;20058;-67
2022/07/02 06:40:58;;;;;;;1.02;0.40;;;;;;;29.21;35.88;101956.63;4954898;28;20030;-67
2022/07/02 06:43:25;;;;;;;0.45;0.25;;;;;;;29.36;35.22;101954.44;4954935;28;20030;-67
2022/07/02 06:45:51;;;;;;;0.32;0.20;;;;;;;29.56;34.34;101954.25;4969398;28;20042;-67
2022/07/02 06:48:16;;;;;;;1.92;0.50;;;;;;;29.68;34.42;101952.41;4953577;28;20023;-67
2022/07/02 06:50:42;;;;;;;2.25;0.50;;;;;;;29.86;34.57;101950.56;4953653;29;20401;-67
2022/07/02 06:53:07;;;;;;;0.30;0.30;;;;;;;30.03;34.01;101939.75;4953540;29;20106;-67
2022/07/02 06:55:32;;;;;;;2.78;0.93;;;;;;;30.20;34.26;101946.34;4953609;29;20104;-67
2022/07/02 06:57:57;;;;;;;1.27;0.40;;;;;;;30.37;34.23;101941.91;4954881;28;20390;-67
2022/07/02 07:00:23;;;;;;;1.52;0.47;;;;;;;30.55;33.25;101941.88;4954801;28;20035;-62
2022/07/02 07:02:49;;;;;;;1.88;0.60;;;;;;;30.74;33.32;101944.59;4953551;29;20045;-61
2022/07/02 07:05:16;;;;;;;0.50;0.45;;;;;;;30.87;33.06;101947.16;4956780;28;20090;-62
2022/07/02 07:07:41;;;;;;;4.60;0.50;;;;;;;31.00;32.80;101942.31;4958367;28;20050;-62
2022/07/02 07:10:07;;;;;;;3.35;1.15;;;;;;;31.18;32.63;101943.31;4958195;28;20027;-62
2022/07/02 07:12:32;;;;;;;2.15;0.30;;;;;;;31.35;32.68;101939.56;4956790;29;20023;-62
2022/07/02 07:15:00;;;;;;;2.97;0.40;;;;;;;31.51;32.31;101943.63;4958145;28;20035;-64
2022/07/02 07:17:26;;;;;;;2.25;0.52;;;;;;;31.68;31.71;101939.88;4958255;28;20023;-62
2022/07/02 07:19:51;;;;;;;1.40;0.50;;;;;;;31.85;31.81;101944.69;4957958;28;20038;-67
2022/07/02 07:22:16;;;;;;;1.55;0.50;;;;;;;31.97;31.69;101948.28;4956822;28;20043;-67
2022/07/02 07:24:42;;;;;;;28.90;3.13;;;;;;;32.12;31.32;101951.41;4956791;29;20034;-67
2022/07/02 07:27:07;;;;;;;2.22;0.50;;;;;;;32.33;31.42;101956.31;4956842;29;20071;-66
2022/07/02 07:29:32;;;;;;;1.25;0.50;;;;;;;32.47;31.04;101948.56;4956727;29;20110;-66
2022/07/02 07:31:58;;;;;;;0.52;0.32;;;;;;;32.61;30.94;101947.22;4957962;28;20035;-66
2022/07/02 07:34:23;;;;;;;1.88;0.40;;;;;;;32.77;30.15;101955.59;4940525;29;20027;-66
2022/07/02 07:36:50;;;;;;;1.45;0.50;;;;;;;32.90;29.73;101953.56;4957756;28;20031;-67
2022/07/02 07:39:16;;;;;;;1.38;0.60;;;;;;;33.02;30.03;101946.03;4956624;29;20481;-66
2022/07/02 07:41:41;;;;;;;0.75;0.68;;;;;;;33.16;29.79;101950.19;4957690;28;20034;-66
2022/07/02 07:44:07;;;;;;;0.80;0.55;;;;;;;33.28;29.35;101950.94;4940458;29;20019;-66
2022/07/02 07:46:32;;;;;;;1.73;0.57;;;;;;;33.40;30.09;101954.47;4957385;28;20082;-67
2022/07/02 07:48:58;;;;;;;3.42;0.63;;;;;;;33.54;29.59;101958.59;4957448;28;20104;-67
2022/07/02 07:51:24;;;;;;;0.80;0.52;;;;;;;33.67;28.53;101938.00;4956335;29;20027;-67
2022/07/02 07:53:49;;;;;;;2.85;0.55;;;;;;;33.81;28.89;101934.56;4956314;29;20078;-67
2022/07/02 07:56:18;;;;;;;1.38;0.50;;;;;;;33.97;28.24;101944.00;4956379;29;20114;-67
2022/07/02 07:58:43;;;;;;;0.77;0.50;;;;;;;34.07;28.84;101938.56;4940543;29;20031;-67
2022/07/02 08:01:09;;;;;;;3.30;0.65;;;;;;;34.11;28.28;101933.34;4956220;29;20110;-67
2022/07/02 08:03:34;;;;;;;2.85;0.40;;;;;;;34.18;27.96;101940.41;4956182;29;20473;-67
2022/07/02 08:06:03;;;;;;;4.43;0.40;;;;;;;34.19;27.98;101932.91;4956088;28;20027;-67
2022/07/02 08:08:28;;;;;;;1.05;0.43;;;;;;;34.19;27.59;101935.69;4956043;29;20035;-67
2022/07/02 08:10:53;;;;;;;3.30;0.45;;;;;;;34.30;27.70;101937.50;4957283;28;20031;-67
2022/07/02 08:13:19;;;;;;;2.70;0.30;;;;;;;34.44;27.71;101933.22;4955709;28;20044;-67
2022/07/02 08:15:45;;;;;;;1.27;0.50;;;;;;;34.56;27.09;101931.13;4939503;28;20094;-67
2022/07/02 08:18:10;;;;;;;2.72;0.47;;;;;;;34.69;26.76;101925.16;4956955;28;20030;-67
2022/07/02 08:20:36;;;;;;;1.33;0.30;;;;;;;34.85;26.69;101928.94;4939845;29;20019;-67
2022/07/02 08:23:02;;;;;;;1.38;0.40;;;;;;;34.93;26.76;101928.44;4955833;29;20027;-67
2022/07/02 08:25:27;;;;;;;2.80;0.55;;;;;;;35.01;26.41;101917.66;4955804;29;20054;-67
2022/07/02 08:27:53;;;;;;;1.77;0.45;;;;;;;35.15;26.69;101911.69;4955786;29;20058;-67
2022/07/02 08:30:18;;;;;;;0.57;0.22;;;;;;;35.32;26.47;101920.72;4939681;29;20027;-67
2022/07/02 08:32:44;;;;;;;1.75;0.43;;;;;;;35.46;26.42;101919.16;4955537;29;20544;-68
2022/07/02 08:35:09;;;;;;;3.28;0.50;;;;;;;35.47;26.07;101920.84;4955845;29;20031;-67
2022/07/02 08:37:34;;;;;;;4.88;0.40;;;;;;;35.55;25.71;101912.88;4971661;28;20118;-67
2022/07/02 08:40:00;;;;;;;2.38;0.40;;;;;;;35.67;25.43;101926.59;4955557;29;20031;-68
2022/07/02 08:42:32;;;;;;;4.07;0.40;;;;;;;35.75;25.46;101916.88;4956622;28;20049;-67
2022/07/02 08:45:02;;;;;;;;;;;;;;;35.93;25.86;101917.25;4939837;29;20027;-67
2022/07/02 08:47:28;;;;;;;1.70;0.28;;;;;;;36.01;26.01;101913.97;4956599;28;19914;-67
2022/07/02 08:49:55;;;;;;;2.28;0.52;;;;;;;36.05;25.46;101917.91;4955198;29;20023;-67
2022/07/02 08:52:22;;;;;;;1.02;0.25;;;;;;;36.07;25.22;101921.25;4984144;28;20097;-67
2022/07/02 08:54:48;;;;;;;3.83;1.35;;;;;;;36.11;24.76;101922.41;4968801;28;20084;-68
2022/07/02 08:57:14;;;;;;;1.98;0.40;;;;;;;36.13;24.52;101930.50;4988116;28;20029;-68
2022/07/02 08:59:40;;;;;;;1.55;0.40;;;;;;;36.21;24.53;101924.41;4991548;28;20073;-67
2022/07/02 09:02:06;;;;;;;0.40;0.20;;;;;;;36.28;24.12;101910.19;4975712;28;20034;-67
2022/07/02 09:04:33;;;;;;;0.90;0.50;;;;;;;36.37;24.57;101916.91;4974621;28;20029;-67
2022/07/02 09:07:01;;;;;;;1.17;0.40;;;;;;;36.48;24.69;101915.84;4975917;28;20039;-67
2022/07/02 09:09:27;;;;;;;1.83;0.45;;;;;;;36.51;24.01;101906.94;4974180;28;20485;-67
2022/07/02 09:11:53;;;;;;;1.67;0.68;;;;;;;36.52;23.91;101905.81;4974206;28;20086;-67
2022/07/02 09:14:20;;;;;;;1.35;0.40;;;;;;;36.69;23.92;101900.81;4974006;28;20050;-67
2022/07/02 09:16:46;;;;;;;6.15;0.40;;;;;;;36.87;24.06;101891.06;4958042;28;20033;-67
2022/07/02 09:19:12;;;;;;;4.13;0.30;;;;;;;36.37;24.57;101891.78;4974100;28;20019;-67
2022/07/02 09:21:47;;;;;;;0.63;0.30;;;;;;;36.75;23.83;101900.56;4973931;28;20037;-67
2022/07/02 09:24:13;;;;;;;0.47;0.22;;;;;;;37.03;23.63;101890.81;4984076;28;20030;-67
2022/07/02 09:26:38;;;;;;;1.52;0.45;;;;;;;37.26;23.17;101884.66;4977157;28;20044;-67
2022/07/02 09:29:04;;;;;;;0.57;0.20;;;;;;;37.26;23.79;101883.81;4976250;28;20026;-67
2022/07/02 09:31:33;;;;;;;0.85;0.30;;;;;;;37.49;23.00;101886.06;4994434;28;20502;-67
2022/07/02 09:34:00;;;;;;;1.30;0.40;;;;;;;37.63;23.14;101877.91;4976671;28;20121;-67
2022/07/02 09:36:26;;;;;;;1.13;0.38;;;;;;;37.24;23.17;101884.09;4993077;28;20026;-67
2022/07/02 09:38:53;;;;;;;1.85;0.28;;;;;;;36.48;23.50;101877.59;4993087;28;20026;-67
2022/07/02 09:41:21;;;;;;;3.10;0.55;;;;;;;36.60;22.95;101877.34;4993197;28;20125;-67
2022/07/02 09:44:00;;;;;;;1.65;0.13;;;;;;;36.88;23.14;101876.00;4976889;28;20109;-67
2022/07/02 09:46:26;;;;;;;3.63;0.70;;;;;;;37.15;22.57;101880.19;4977277;28;20034;-67
2022/07/02 09:48:52;;;;;;;0.40;0.20;;;;;;;36.54;22.92;101878.47;4957463;28;20377;-67
2022/07/02 09:51:18;;;;;;;1.50;0.70;;;;;;;36.26;23.06;101878.91;4973445;28;20054;-68
2022/07/02 09:54:01;;;;;;;3.40;0.30;;;;;;;36.37;22.68;101875.03;4957476;28;20038;-68
2022/07/02 09:56:27;;;;;;;0.40;0.10;;;;;;;36.38;22.72;101863.56;4957591;28;20031;-68
2022/07/02 09:58:52;;;;;;;0.82;0.22;;;;;;;35.70;23.70;101859.13;4974725;28;20124;-68
2022/07/02 10:01:19;;;;;;;1.08;0.20;;;;;;;35.49;22.59;101863.72;4974606;28;20432;-68
2022/07/02 10:03:48;;;;;;;2.78;0.35;;;;;;;35.72;22.61;101861.63;4973496;28;20019;-68
2022/07/02 10:06:14;;;;;;;0.22;0.20;;;;;;;35.60;23.04;101873.00;4974829;28;20034;-68
2022/07/02 10:08:41;;;;;;;0.82;0.45;;;;;;;35.96;22.72;101863.69;4957243;28;20523;-67
2022/07/02 10:11:06;;;;;;;75.13;71.70;;;;;;;36.13;22.27;101852.34;4973283;28;20033;-67
2022/07/02 10:13:33;;;;;;;1999.90;999.90;;;;;;;36.83;21.97;101845.22;4956990;28;20038;-67
2022/07/02 10:16:00;;;;;;;3.85;3.63;;;;;;;38.00;21.66;101844.75;4957238;28;20058;-67
2022/07/02 10:18:26;;;;;;;0.30;0.28;;;;;;;38.10;20.84;101841.06;4973239;28;20030;-66
2022/07/02 10:20:56;;;;;;;0.43;0.40;;;;;;;38.91;20.35;101849.81;4957161;28;20023;-66
2022/07/02 10:23:25;;;;;;;1.45;0.60;;;;;;;38.69;20.85;101841.84;4973399;28;20026;-66
2022/07/02 10:25:52;;;;;;;1.27;0.40;;;;;;;38.37;21.42;101836.72;4973364;28;20073;-66
2022/07/02 10:28:18;;;;;;;2.33;1.73;;;;;;;38.19;20.64;101836.56;4974484;28;20686;-66
2022/07/02 10:30:43;;;;;;;4.05;1.67;;;;;;;38.35;20.62;101841.78;4974332;28;20049;-67
2022/07/02 10:33:18;;;;;;;0.70;0.60;;;;;;;38.55;20.72;101834.38;4973153;28;20034;-67
2022/07/02 10:35:45;;;;;;;1.40;0.70;;;;;;;38.64;20.43;101822.22;4974299;28;20491;-67
2022/07/02 10:38:10;;;;;;;1.38;1.10;;;;;;;38.69;20.94;101835.38;4973019;28;20400;-66
2022/07/02 10:40:49;;;;;;;0.98;0.90;;;;;;;39.18;20.62;101836.06;4975827;28;20023;-67
2022/07/02 10:43:16;;;;;;;0.47;0.47;;;;;;;39.55;20.63;101836.25;4960812;28;20069;-67
2022/07/02 10:45:41;;;;;;;1.30;1.27;;;;;;;39.83;20.17;101828.09;4976944;28;20494;-67
2022/07/02 10:48:09;;;;;;;0.52;0.38;;;;;;;39.52;20.83;101828.44;4979143;28;20131;-67
2022/07/02 10:50:40;;;;;;;2.38;0.32;;;;;;;38.71;20.83;101828.34;4996322;28;20518;-67
2022/07/02 10:53:19;;;;;;;2.03;1.58;;;;;;;38.66;20.58;101830.38;4997411;28;20030;-67
2022/07/02 10:56:04;;;;;;;1.08;1.08;;;;;;;39.42;19.98;101828.53;4979887;28;20177;-67
2022/07/02 10:58:32;;;;;;;0.55;0.20;;;;;;;39.57;20.73;101817.16;4979519;28;20041;-67
2022/07/02 11:01:21;;;;;;;0.73;0.47;;;;;;;38.75;20.00;101817.41;4996184;28;20018;-67
2022/07/02 11:04:08;;;;;;;1.50;0.30;;;;;;;38.22;20.66;101819.97;4996052;28;20113;-67
2022/07/02 11:06:34;;;;;;;1.20;0.20;;;;;;;38.28;20.55;101821.63;4996122;28;20022;-67
2022/07/02 11:09:03;;;;;;;1.42;0.88;;;;;;;39.12;19.70;101817.63;4996040;28;20116;-67
2022/07/02 11:11:35;;;;;;;2.50;0.40;;;;;;;39.06;20.71;101816.00;4997182;28;20034;-67
2022/07/02 11:14:09;;;;;;;;;;;;;;;38.89;20.66;101812.81;4997294;28;20377;-66
2022/07/02 11:16:41;;;;;;;0.40;0.40;;;;;;;38.15;20.75;101808.28;4979535;28;19969;-66
2022/07/02 11:19:19;;;;;;;0.22;0.22;;;;;;;38.57;20.95;101798.50;4995886;28;20026;-67
2022/07/02 11:21:48;;;;;;;1.02;0.20;;;;;;;38.82;20.83;101801.09;4996846;28;20035;-67
2022/07/02 11:24:19;;;;;;;1.15;0.32;;;;;;;39.58;20.68;101793.56;4995759;28;20027;-66
2022/07/02 11:26:45;;;;;;;0.80;0.20;;;;;;;40.20;19.43;101793.63;4995574;28;20061;-66